| time (UTC) | temp F | wind direction | speed knots | gust knots | rain 1hr in | rain 24hr in | rain mn in | humidity % | barometer mb |
| 20260508200352 | 70 | 242 | 5.2 | 7.8 | 0.00 | 0.00 | 0.00 | 44 | 1010.2 |
| 20260508195851 | 70 | 235 | 6.1 | 11.3 | 0.00 | 0.00 | 0.00 | 44 | 1010.1 |
| 20260508195350 | 70 | 233 | 5.2 | 7.0 | 0.00 | 0.00 | 0.00 | 44 | 1010.1 |
| 20260508194852 | 70 | 316 | 2.6 | 4.3 | 0.00 | 0.00 | 0.00 | 44 | 1010.2 |
| 20260508194354 | 70 | 248 | 7.8 | 9.6 | 0.00 | 0.00 | 0.00 | 43 | 1010.3 |
| 20260508193851 | 70 | 231 | 2.6 | 4.3 | 0.00 | 0.00 | 0.00 | 45 | 1010.3 |
| 20260508193356 | 70 | 253 | 5.2 | 8.7 | 0.00 | 0.00 | 0.00 | 45 | 1010.2 |
| 20260508192852 | 69 | 253 | 3.5 | 6.1 | 0.00 | 0.00 | 0.00 | 46 | 1010.4 |
| 20260508192352 | 69 | 248 | 5.2 | 6.1 | 0.00 | 0.00 | 0.00 | 45 | 1010.4 |
| 20260508191850 | 69 | 220 | 5.2 | 7.0 | 0.00 | 0.00 | 0.00 | 45 | 1010.5 |
| 20260508191352 | 69 | 235 | 5.2 | 7.8 | 0.00 | 0.00 | 0.00 | 46 | 1010.7 |
| 20260508190849 | 69 | 263 | 5.2 | 7.8 | 0.00 | 0.00 | 0.00 | 45 | 1010.8 |
| 20260508190351 | 69 | 256 | 4.3 | 8.7 | 0.00 | 0.00 | 0.00 | 44 | 1010.8 |
| 20260508185852 | 69 | 220 | 6.1 | 8.7 | 0.00 | 0.00 | 0.00 | 45 | 1010.9 |
| 20260508185357 | 69 | 236 | 3.5 | 5.2 | 0.00 | 0.00 | 0.00 | 46 | 1011.3 |
| 20260508184852 | 69 | 234 | 5.2 | 7.0 | 0.00 | 0.00 | 0.00 | 46 | 1011.2 |
| 20260508184354 | 69 | 231 | 4.3 | 6.1 | 0.00 | 0.00 | 0.00 | 46 | 1011.3 |
| 20260508183851 | 68 | 239 | 3.5 | 6.1 | 0.00 | 0.00 | 0.00 | 45 | 1011.5 |
| 20260508183353 | 69 | 250 | 7.0 | 12.2 | 0.00 | 0.00 | 0.00 | 43 | 1011.4 |
| 20260508182851 | 69 | 249 | 7.0 | 9.6 | 0.00 | 0.00 | 0.00 | 44 | 1011.3 |
| 20260508182351 | 69 | 297 | 1.7 | 2.6 | 0.00 | 0.00 | 0.00 | 47 | 1011.7 |
| 20260508181851 | 69 | 257 | 6.1 | 11.3 | 0.00 | 0.00 | 0.00 | 46 | 1011.8 |
| 20260508181351 | 68 | 302 | 2.6 | 7.0 | 0.00 | 0.00 | 0.00 | 48 | 1011.7 |
| 20260508180850 | 67 | 276 | 4.3 | 8.7 | 0.00 | 0.00 | 0.00 | 47 | 1011.9 |
| 20260508180351 | 67 | 256 | 6.1 | 8.7 | 0.00 | 0.00 | 0.00 | 45 | 1011.7 |
| 20260508175851 | 67 | 272 | 2.6 | 5.2 | 0.00 | 0.00 | 0.00 | 48 | 1012.1 |
| 20260508175352 | 67 | 248 | 5.2 | 7.8 | 0.00 | 0.00 | 0.00 | 47 | 1012.1 |
| 20260508174853 | 67 | 261 | 5.2 | 9.6 | 0.00 | 0.00 | 0.00 | 47 | 1012.2 |
| 20260508174351 | 67 | 248 | 5.2 | 8.7 | 0.00 | 0.00 | 0.00 | 48 | 1012.3 |
| 20260508173854 | 67 | 268 | 3.5 | 5.2 | 0.00 | 0.00 | 0.00 | 48 | 1012.3 |
| 20260508173351 | 67 | 244 | 2.6 | 4.3 | 0.00 | 0.00 | 0.00 | 48 | 1012.5 |
| 20260508172852 | 67 | 258 | 2.6 | 7.0 | 0.00 | 0.00 | 0.00 | 48 | 1012.6 |
| 20260508172353 | 67 | 265 | 4.3 | 7.8 | 0.00 | 0.00 | 0.00 | 46 | 1012.7 |
| 20260508171850 | 67 | 253 | 7.8 | 12.2 | 0.00 | 0.00 | 0.00 | 45 | 1012.7 |
| 20260508171352 | 67 | 246 | 5.2 | 7.8 | 0.00 | 0.00 | 0.00 | 48 | 1012.8 |
| 20260508170407 | 67 | 273 | 2.6 | 4.3 | 0.00 | 0.00 | 0.00 | 49 | 1013.1 |
| 20260508165853 | 67 | 268 | 5.2 | 8.7 | 0.00 | 0.00 | 0.00 | 48 | 1013.0 |
| 20260508165352 | 67 | 266 | 3.5 | 4.3 | 0.00 | 0.00 | 0.00 | 50 | 1013.3 |
| 20260508164853 | 67 | 262 | 2.6 | 5.2 | 0.00 | 0.00 | 0.00 | 50 | 1013.4 |
| 20260508163912 | 66 | 296 | 2.6 | 7.0 | 0.00 | 0.00 | 0.00 | 51 | 1013.5 |
| 20260508163353 | 65 | 267 | 4.3 | 7.8 | 0.00 | 0.00 | 0.00 | 48 | 1013.4 |
| 20260508162850 | 65 | 251 | 7.0 | 7.8 | 0.00 | 0.00 | 0.00 | 50 | 1013.5 |
| 20260508162351 | 65 | 241 | 7.8 | 13.0 | 0.00 | 0.00 | 0.00 | 50 | 1013.5 |
| 20260508161850 | 65 | 271 | 5.2 | 8.7 | 0.00 | 0.00 | 0.00 | 49 | 1013.7 |
| 20260508161352 | 65 | 260 | 5.2 | 11.3 | 0.00 | 0.00 | 0.00 | 49 | 1013.9 |
| 20260508160851 | 65 | 269 | 4.3 | 11.3 | 0.00 | 0.00 | 0.00 | 52 | 1013.6 |
| 20260508160352 | 64 | 250 | 5.2 | 7.8 | 0.00 | 0.00 | 0.00 | 50 | 1013.7 |
| 20260508155849 | 64 | 230 | 6.1 | 10.4 | 0.00 | 0.00 | 0.00 | 51 | 1013.9 |
| 20260508155353 | 64 | 238 | 6.1 | 9.6 | 0.00 | 0.00 | 0.00 | 50 | 1013.9 |
| 20260508154850 | 64 | 228 | 6.1 | 8.7 | 0.00 | 0.00 | 0.00 | 51 | 1014.0 |
| 20260508154350 | 64 | 250 | 3.5 | 7.8 | 0.00 | 0.00 | 0.00 | 52 | 1014.1 |
| 20260508153852 | 64 | 274 | 5.2 | 9.6 | 0.00 | 0.00 | 0.00 | 53 | 1014.2 |
| 20260508153353 | 64 | 238 | 6.1 | 10.4 | 0.00 | 0.00 | 0.00 | 51 | 1014.3 |
| 20260508152852 | 64 | 273 | 2.6 | 7.0 | 0.00 | 0.00 | 0.00 | 55 | 1014.4 |
| 20260508152352 | 63 | 230 | 4.3 | 7.8 | 0.00 | 0.00 | 0.00 | 53 | 1014.4 |
| 20260508151852 | 63 | 275 | 1.7 | 3.5 | 0.00 | 0.00 | 0.00 | 56 | 1014.5 |
| 20260508151352 | 62 | 248 | 4.3 | 7.8 | 0.00 | 0.00 | 0.00 | 55 | 1014.4 |
| 20260508150851 | 62 | 269 | 4.3 | 8.7 | 0.00 | 0.00 | 0.00 | 53 | 1014.5 |
| 20260508150351 | 61 | 239 | 4.3 | 7.0 | 0.00 | 0.00 | 0.00 | 55 | 1014.7 |
| 20260508145852 | 61 | 259 | 7.0 | 11.3 | 0.00 | 0.00 | 0.00 | 54 | 1014.4 |
| 20260508145353 | 61 | 259 | 5.2 | 8.7 | 0.00 | 0.00 | 0.00 | 54 | 1014.4 |
| 20260508144851 | 61 | 241 | 6.1 | 7.8 | 0.00 | 0.00 | 0.00 | 53 | 1014.5 |
| 20260508144354 | 61 | 247 | 4.3 | 6.1 | 0.00 | 0.00 | 0.00 | 54 | 1014.8 |
| 20260508143851 | 61 | 227 | 3.5 | 7.8 | 0.00 | 0.00 | 0.00 | 55 | 1014.7 |
| 20260508143351 | 61 | 244 | 5.2 | 9.6 | 0.00 | 0.00 | 0.00 | 54 | 1014.7 |
| 20260508142851 | 60 | 245 | 2.6 | 3.5 | 0.00 | 0.00 | 0.00 | 55 | 1014.9 |
| 20260508142351 | 60 | 268 | 2.6 | 7.0 | 0.00 | 0.00 | 0.00 | 53 | 1014.8 |
| 20260508141855 | 60 | 259 | 5.2 | 8.7 | 0.00 | 0.00 | 0.00 | 54 | 1014.8 |
| 20260508141351 | 60 | 251 | 5.2 | 7.0 | 0.00 | 0.00 | 0.00 | 54 | 1014.9 |
| 20260508140853 | 59 | 248 | 4.3 | 6.1 | 0.00 | 0.00 | 0.00 | 55 | 1015.0 |
| 20260508140352 | 59 | 243 | 6.1 | 8.7 | 0.00 | 0.00 | 0.00 | 55 | 1015.0 |
| 20260508135853 | 58 | 251 | 5.2 | 7.8 | 0.00 | 0.00 | 0.00 | 54 | 1014.9 |
| 20260508135352 | 58 | 253 | 7.0 | 9.6 | 0.00 | 0.00 | 0.00 | 54 | 1014.9 |
| 20260508134853 | 58 | 259 | 6.1 | 9.6 | 0.00 | 0.00 | 0.00 | 54 | 1014.9 |
| 20260508134352 | 58 | 259 | 7.8 | 10.4 | 0.00 | 0.00 | 0.00 | 54 | 1014.9 |
| 20260508133852 | 57 | 254 | 5.2 | 7.8 | 0.00 | 0.00 | 0.00 | 56 | 1014.9 |
| 20260508133352 | 57 | 229 | 7.8 | 9.6 | 0.00 | 0.00 | 0.00 | 56 | 1015.0 |
| 20260508132852 | 56 | 239 | 4.3 | 7.0 | 0.00 | 0.00 | 0.00 | 58 | 1015.1 |
| 20260508132352 | 56 | 257 | 1.7 | 3.5 | 0.00 | 0.00 | 0.00 | 61 | 1015.1 |
| 20260508131852 | 55 | 232 | 5.2 | 7.0 | 0.00 | 0.00 | 0.00 | 60 | 1015.0 |
| 20260508131350 | 55 | 225 | 3.5 | 5.2 | 0.00 | 0.00 | 0.00 | 60 | 1015.0 |
| 20260508130852 | 55 | 246 | 4.3 | 7.0 | 0.00 | 0.00 | 0.00 | 61 | 1015.0 |
| 20260508130350 | 54 | 252 | 1.7 | 3.5 | 0.00 | 0.00 | 0.00 | 63 | 1015.1 |
| 20260508125852 | 53 | 235 | 5.2 | 7.8 | 0.00 | 0.00 | 0.00 | 64 | 1015.2 |
| 20260508125351 | 53 | 223 | 4.3 | 6.1 | 0.00 | 0.00 | 0.00 | 66 | 1015.3 |
| 20260508124851 | 52 | 234 | 3.5 | 5.2 | 0.00 | 0.00 | 0.00 | 67 | 1015.3 |
| 20260508124353 | 51 | 233 | 5.2 | 7.0 | 0.00 | 0.00 | 0.00 | 67 | 1015.3 |
| 20260508123853 | 51 | 246 | 3.5 | 5.2 | 0.00 | 0.00 | 0.00 | 67 | 1015.4 |
| 20260508123353 | 50 | 243 | 4.3 | 6.1 | 0.00 | 0.00 | 0.00 | 68 | 1015.3 |
| 20260508122852 | 50 | 248 | 3.5 | 5.2 | 0.00 | 0.00 | 0.00 | 70 | 1015.3 |
| 20260508122349 | 49 | 243 | 3.5 | 5.2 | 0.00 | 0.00 | 0.00 | 70 | 1015.4 |
| 20260508121851 | 48 | 252 | 4.3 | 6.1 | 0.00 | 0.00 | 0.00 | 72 | 1015.3 |
| 20260508121351 | 47 | 245 | 5.2 | 7.0 | 0.00 | 0.00 | 0.00 | 74 | 1015.4 |
| 20260508120851 | 47 | 247 | 1.7 | 3.5 | 0.00 | 0.00 | 0.00 | 77 | 1015.6 |
| 20260508120352 | 46 | 208 | 3.5 | 5.2 | 0.00 | 0.00 | 0.00 | 77 | 1015.5 |
| 20260508115851 | 46 | 224 | 3.5 | 4.3 | 0.00 | 0.00 | 0.00 | 77 | 1015.6 |
| 20260508115352 | 46 | 217 | 1.7 | 3.5 | 0.00 | 0.00 | 0.00 | 78 | 1015.5 |
| 20260508114851 | 46 | 204 | 1.7 | 2.6 | 0.00 | 0.00 | 0.00 | 79 | 1015.4 |
| 20260508114349 | 46 | 206 | 1.7 | 2.6 | 0.00 | 0.00 | 0.00 | 78 | 1015.4 |
| 20260508113850 | 46 | 211 | 1.7 | 2.6 | 0.00 | 0.00 | 0.00 | 78 | 1015.5 |
| 20260508113351 | 46 | 222 | 1.7 | 2.6 | 0.00 | 0.00 | 0.00 | 78 | 1015.4 |
| 20260508112853 | 45 | 217 | 1.7 | 2.6 | 0.00 | 0.00 | 0.00 | 79 | 1015.4 |
| 20260508112352 | 45 | 217 | 2.6 | 2.6 | 0.00 | 0.00 | 0.00 | 78 | 1015.3 |
| 20260508111852 | 45 | 226 | 3.5 | 3.5 | 0.00 | 0.00 | 0.00 | 78 | 1015.3 |
| 20260508111350 | 45 | 209 | 1.7 | 2.6 | 0.00 | 0.00 | 0.00 | 78 | 1015.2 |
| 20260508110856 | 45 | 211 | 2.6 | 3.5 | 0.00 | 0.00 | 0.00 | 78 | 1015.2 |
| 20260508110353 | 45 | 229 | 1.7 | 3.5 | 0.00 | 0.00 | 0.00 | 78 | 1015.2 |
| 20260508105852 | 44 | 221 | 1.7 | 2.6 | 0.00 | 0.00 | 0.00 | 78 | 1015.1 |
| 20260508105351 | 44 | 218 | 2.6 | 4.3 | 0.00 | 0.00 | 0.00 | 79 | 1015.1 |
| 20260508104850 | 43 | 230 | 2.6 | 3.5 | 0.00 | 0.00 | 0.00 | 81 | 1015.2 |
| 20260508104351 | 43 | 241 | 1.7 | 2.6 | 0.00 | 0.00 | 0.00 | 83 | 1015.2 |
| 20260508103852 | 43 | 236 | 1.7 | 1.7 | 0.00 | 0.00 | 0.00 | 83 | 1015.2 |
| 20260508103349 | 42 | 235 | 0.9 | 1.7 | 0.00 | 0.00 | 0.00 | 83 | 1015.2 |
| 20260508102851 | 42 | 241 | 0.9 | 1.7 | 0.00 | 0.00 | 0.00 | 84 | 1015.2 |
| 20260508102351 | 42 | 236 | 0.9 | 0.9 | 0.00 | 0.00 | 0.00 | 84 | 1015.1 |
| 20260508101851 | 42 | 234 | 0.9 | 0.9 | 0.00 | 0.00 | 0.00 | 84 | 1015.2 |
| 20260508101353 | 42 | 226 | 0.9 | 1.7 | 0.00 | 0.00 | 0.00 | 84 | 1015.2 |
| 20260508100851 | 42 | 231 | 0.9 | 0.9 | 0.00 | 0.00 | 0.00 | 85 | 1015.1 |
| 20260508100352 | 41 | 210 | 0.0 | 1.7 | 0.00 | 0.00 | 0.00 | 86 | 1015.2 |
| 20260508095853 | 41 | 222 | 0.9 | 1.7 | 0.00 | 0.00 | 0.00 | 86 | 1015.2 |
| 20260508095351 | 41 | 0 | 0.0 | 0.0 | 0.00 | 0.00 | 0.00 | 87 | 1015.3 |
| 20260508094850 | 41 | 0 | 0.0 | 0.0 | 0.00 | 0.00 | 0.00 | 87 | 1015.2 |
| 20260508094351 | 41 | 212 | 0.9 | 1.7 | 0.00 | 0.00 | 0.00 | 88 | 1015.1 |
| 20260508093851 | 40 | 235 | 1.7 | 1.7 | 0.00 | 0.00 | 0.00 | 89 | 1015.3 |
| 20260508093351 | 40 | 234 | 0.9 | 0.9 | 0.00 | 0.00 | 0.00 | 89 | 1015.3 |
| 20260508092850 | 40 | 226 | 0.9 | 1.7 | 0.00 | 0.00 | 0.00 | 89 | 1015.2 |
| 20260508092352 | 40 | 227 | 0.9 | 1.7 | 0.00 | 0.00 | 0.00 | 89 | 1015.3 |
| 20260508091852 | 40 | 221 | 0.0 | 0.9 | 0.00 | 0.00 | 0.00 | 88 | 1015.2 |
| 20260508091351 | 40 | 0 | 0.0 | 0.0 | 0.00 | 0.00 | 0.00 | 89 | 1015.3 |
| 20260508090852 | 40 | 234 | 0.9 | 1.7 | 0.00 | 0.00 | 0.00 | 89 | 1015.3 |
| 20260508090352 | 40 | 253 | 0.0 | 0.9 | 0.00 | 0.00 | 0.00 | 88 | 1015.2 |
| 20260508085854 | 40 | 213 | 0.9 | 1.7 | 0.00 | 0.00 | 0.00 | 88 | 1015.2 |
| 20260508085352 | 40 | 225 | 1.7 | 1.7 | 0.00 | 0.00 | 0.00 | 88 | 1015.1 |
| 20260508084852 | 40 | 226 | 0.9 | 0.9 | 0.00 | 0.00 | 0.00 | 88 | 1015.1 |
| 20260508084353 | 40 | 221 | 0.9 | 0.9 | 0.00 | 0.00 | 0.00 | 88 | 1015.1 |
| 20260508083849 | 41 | 213 | 0.9 | 1.7 | 0.00 | 0.00 | 0.00 | 87 | 1015.1 |
| 20260508083353 | 41 | 221 | 0.9 | 1.7 | 0.00 | 0.00 | 0.00 | 87 | 1015.2 |
| 20260508082855 | 41 | 221 | 0.9 | 0.9 | 0.00 | 0.00 | 0.00 | 87 | 1015.1 |
| 20260508082351 | 41 | 228 | 0.9 | 0.9 | 0.00 | 0.00 | 0.00 | 86 | 1015.2 |
| 20260508081852 | 41 | 224 | 0.9 | 1.7 | 0.00 | 0.00 | 0.00 | 86 | 1015.1 |
| 20260508081352 | 41 | 241 | 0.0 | 0.9 | 0.00 | 0.00 | 0.00 | 85 | 1015.0 |
| 20260508080853 | 41 | 236 | 0.0 | 0.9 | 0.00 | 0.00 | 0.00 | 85 | 1014.9 |
| 20260508080351 | 41 | 222 | 0.0 | 0.9 | 0.00 | 0.00 | 0.00 | 85 | 1014.9 |
| 20260508075852 | 42 | 0 | 0.0 | 0.0 | 0.00 | 0.00 | 0.00 | 84 | 1014.9 |
| 20260508075351 | 42 | 0 | 0.0 | 0.0 | 0.00 | 0.00 | 0.00 | 84 | 1014.9 |
| 20260508074851 | 42 | 0 | 0.0 | 0.0 | 0.00 | 0.00 | 0.00 | 84 | 1014.9 |
| 20260508074352 | 42 | 240 | 0.9 | 1.7 | 0.00 | 0.00 | 0.00 | 84 | 1014.9 |
| 20260508073854 | 42 | 236 | 0.9 | 1.7 | 0.00 | 0.00 | 0.00 | 84 | 1014.9 |
| 20260508073352 | 42 | 230 | 0.9 | 1.7 | 0.00 | 0.00 | 0.00 | 84 | 1014.9 |
| 20260508072851 | 42 | 240 | 0.9 | 1.7 | 0.00 | 0.00 | 0.00 | 83 | 1014.9 |
| 20260508072352 | 43 | 214 | 0.9 | 1.7 | 0.00 | 0.00 | 0.00 | 83 | 1014.9 |
| 20260508071852 | 43 | 240 | 0.9 | 0.9 | 0.00 | 0.00 | 0.00 | 83 | 1015.0 |
| 20260508071352 | 43 | 235 | 0.9 | 1.7 | 0.00 | 0.00 | 0.00 | 82 | 1015.0 |
| 20260508070852 | 43 | 233 | 0.9 | 0.9 | 0.00 | 0.00 | 0.00 | 81 | 1014.9 |
| 20260508070352 | 43 | 230 | 1.7 | 1.7 | 0.00 | 0.00 | 0.00 | 80 | 1015.0 |
| 20260508065849 | 43 | 230 | 0.9 | 0.9 | 0.00 | 0.00 | 0.00 | 81 | 1015.0 |
| 20260508065349 | 43 | 229 | 1.7 | 2.6 | 0.00 | 0.00 | 0.00 | 81 | 1015.0 |
| 20260508064851 | 43 | 232 | 1.7 | 2.6 | 0.00 | 0.00 | 0.00 | 82 | 1015.0 |
| 20260508064351 | 42 | 235 | 0.9 | 2.6 | 0.00 | 0.00 | 0.00 | 83 | 1015.1 |
| 20260508063851 | 42 | 234 | 1.7 | 1.7 | 0.00 | 0.00 | 0.00 | 84 | 1015.2 |
| 20260508063352 | 42 | 241 | 1.7 | 1.7 | 0.00 | 0.00 | 0.00 | 86 | 1015.4 |
| 20260508062853 | 42 | 241 | 1.7 | 1.7 | 0.00 | 0.00 | 0.00 | 87 | 1015.5 |
| 20260508062354 | 41 | 237 | 1.7 | 1.7 | 0.00 | 0.00 | 0.00 | 88 | 1015.6 |
| 20260508061851 | 41 | 247 | 0.9 | 1.7 | 0.00 | 0.00 | 0.00 | 89 | 1015.6 |
| 20260508061349 | 41 | 244 | 0.9 | 1.7 | 0.00 | 0.00 | 0.00 | 89 | 1015.7 |
| 20260508060850 | 41 | 228 | 1.7 | 1.7 | 0.00 | 0.00 | 0.00 | 89 | 1015.6 |
| 20260508060349 | 41 | 237 | 0.9 | 1.7 | 0.00 | 0.00 | 0.00 | 89 | 1015.7 |
| 20260508055850 | 41 | 229 | 0.9 | 1.7 | 0.00 | 0.00 | 0.00 | 89 | 1015.6 |
| 20260508055351 | 41 | 227 | 0.9 | 1.7 | 0.00 | 0.00 | 0.00 | 89 | 1015.6 |
| 20260508054852 | 41 | 222 | 0.0 | 0.9 | 0.00 | 0.00 | 0.00 | 88 | 1015.6 |
| 20260508054355 | 42 | 0 | 0.0 | 0.0 | 0.00 | 0.00 | 0.00 | 88 | 1015.6 |
| 20260508053851 | 42 | 220 | 0.9 | 1.7 | 0.00 | 0.00 | 0.00 | 88 | 1015.6 |
| 20260508053353 | 42 | 233 | 0.9 | 1.7 | 0.00 | 0.00 | 0.00 | 89 | 1015.6 |
| 20260508052851 | 42 | 236 | 0.9 | 0.9 | 0.00 | 0.00 | 0.00 | 88 | 1015.6 |
| 20260508052350 | 42 | 230 | 0.9 | 0.9 | 0.00 | 0.00 | 0.00 | 88 | 1015.5 |
| 20260508051849 | 42 | 237 | 0.0 | 0.9 | 0.00 | 0.00 | 0.00 | 88 | 1015.5 |
| 20260508051354 | 42 | 232 | 0.9 | 0.9 | 0.00 | 0.00 | 0.00 | 88 | 1015.5 |
| 20260508050852 | 42 | 235 | 0.9 | 1.7 | 0.00 | 0.00 | 0.00 | 88 | 1015.5 |
| 20260508050350 | 42 | 232 | 1.7 | 1.7 | 0.00 | 0.00 | 0.00 | 88 | 1015.6 |
| 20260508045849 | 42 | 224 | 0.0 | 1.7 | 0.00 | 0.00 | 0.00 | 87 | 1015.6 |
| 20260508045350 | 42 | 0 | 0.0 | 0.0 | 0.00 | 0.00 | 0.00 | 87 | 1015.6 |
| 20260508044849 | 42 | 268 | 0.0 | 0.9 | 0.00 | 0.00 | 0.00 | 87 | 1015.5 |
| 20260508044349 | 42 | 0 | 0.0 | 0.0 | 0.00 | 0.00 | 0.00 | 87 | 1015.5 |
| 20260508043850 | 42 | 0 | 0.0 | 0.0 | 0.00 | 0.00 | 0.00 | 87 | 1015.5 |
| 20260508043351 | 42 | 0 | 0.0 | 0.0 | 0.00 | 0.00 | 0.00 | 87 | 1015.5 |
| 20260508042849 | 42 | 240 | 0.9 | 0.9 | 0.00 | 0.00 | 0.00 | 87 | 1015.5 |
| 20260508042350 | 42 | 249 | 0.0 | 0.9 | 0.00 | 0.00 | 0.00 | 87 | 1015.5 |
| 20260508041850 | 42 | 267 | 0.9 | 1.7 | 0.00 | 0.00 | 0.00 | 87 | 1015.5 |
| 20260508041354 | 42 | 253 | 0.0 | 0.9 | 0.00 | 0.00 | 0.00 | 87 | 1015.5 |
| 20260508040851 | 42 | 226 | 0.0 | 0.0 | 0.00 | 0.00 | 0.00 | 87 | 1015.5 |
| 20260508040351 | 43 | 239 | 1.7 | 1.7 | 0.00 | 0.00 | 0.00 | 87 | 1015.5 |
| 20260508035851 | 43 | 246 | 0.9 | 0.9 | 0.00 | 0.00 | 0.00 | 87 | 1015.6 |
| 20260508035351 | 43 | 249 | 1.7 | 1.7 | 0.00 | 0.00 | 0.00 | 87 | 1015.6 |
| 20260508034852 | 43 | 237 | 0.9 | 0.9 | 0.00 | 0.00 | 0.00 | 86 | 1015.6 |
| 20260508034351 | 43 | 241 | 0.9 | 0.9 | 0.00 | 0.00 | 0.00 | 86 | 1015.6 |
| 20260508033853 | 43 | 210 | 0.9 | 1.7 | 0.00 | 0.00 | 0.00 | 86 | 1015.6 |
| 20260508033351 | 43 | 235 | 1.7 | 1.7 | 0.00 | 0.00 | 0.00 | 86 | 1015.7 |
| 20260508032852 | 43 | 224 | 0.9 | 1.7 | 0.00 | 0.00 | 0.00 | 86 | 1015.6 |
| 20260508032352 | 44 | 232 | 0.9 | 0.9 | 0.00 | 0.00 | 0.00 | 85 | 1015.7 |
| 20260508031851 | 44 | 240 | 0.9 | 0.9 | 0.00 | 0.00 | 0.00 | 85 | 1015.7 |
| 20260508031352 | 44 | 235 | 0.9 | 0.9 | 0.00 | 0.00 | 0.00 | 84 | 1015.6 |
| 20260508030849 | 44 | 231 | 0.9 | 0.9 | 0.00 | 0.00 | 0.00 | 84 | 1015.5 |
| 20260508030351 | 44 | 217 | 1.7 | 1.7 | 0.00 | 0.00 | 0.00 | 83 | 1015.5 |
| 20260508025853 | 44 | 229 | 1.7 | 1.7 | 0.00 | 0.00 | 0.00 | 83 | 1015.5 |
| 20260508025353 | 45 | 244 | 0.0 | 0.9 | 0.00 | 0.00 | 0.00 | 83 | 1015.6 |
| 20260508024850 | 45 | 238 | 1.7 | 1.7 | 0.00 | 0.00 | 0.00 | 82 | 1015.5 |
| 20260508024349 | 45 | 231 | 1.7 | 1.7 | 0.00 | 0.00 | 0.00 | 82 | 1015.4 |
| 20260508023851 | 45 | 231 | 1.7 | 1.7 | 0.00 | 0.00 | 0.00 | 81 | 1015.4 |
| 20260508023352 | 45 | 219 | 1.7 | 1.7 | 0.00 | 0.00 | 0.00 | 80 | 1015.4 |
| 20260508022853 | 45 | 228 | 1.7 | 2.6 | 0.00 | 0.00 | 0.00 | 80 | 1015.4 |
| 20260508022352 | 46 | 220 | 1.7 | 1.7 | 0.00 | 0.00 | 0.00 | 80 | 1015.4 |
| 20260508021851 | 46 | 204 | 1.7 | 1.7 | 0.00 | 0.00 | 0.00 | 79 | 1015.4 |
| 20260508021350 | 46 | 219 | 1.7 | 1.7 | 0.00 | 0.00 | 0.00 | 78 | 1015.5 |
| 20260508020850 | 46 | 229 | 0.9 | 1.7 | 0.00 | 0.00 | 0.00 | 78 | 1015.4 |
| 20260508020349 | 47 | 238 | 0.0 | 0.9 | 0.00 | 0.00 | 0.00 | 77 | 1015.4 |
| 20260508015850 | 47 | 228 | 1.7 | 1.7 | 0.00 | 0.00 | 0.00 | 77 | 1015.3 |
| 20260508014930 | 47 | 229 | 1.7 | 1.7 | 0.00 | 0.00 | 0.00 | 74 | 1015.1 |
| 20260508014349 | 48 | 228 | 0.9 | 0.9 | 0.00 | 0.00 | 0.00 | 71 | 1015.0 |
| 20260508013850 | 48 | 226 | 0.9 | 1.7 | 0.00 | 0.00 | 0.00 | 71 | 1015.0 |
| 20260508013351 | 49 | 212 | 1.7 | 1.7 | 0.00 | 0.00 | 0.00 | 70 | 1014.9 |
| 20260508012851 | 49 | 217 | 1.7 | 1.7 | 0.00 | 0.00 | 0.00 | 68 | 1014.8 |
| 20260508012350 | 49 | 227 | 0.9 | 1.7 | 0.00 | 0.00 | 0.00 | 67 | 1014.7 |
| 20260508011853 | 50 | 226 | 0.9 | 1.7 | 0.00 | 0.00 | 0.00 | 66 | 1014.7 |
| 20260508011349 | 50 | 231 | 0.9 | 0.9 | 0.00 | 0.00 | 0.00 | 66 | 1014.7 |
| 20260508010849 | 51 | 231 | 0.9 | 1.7 | 0.00 | 0.00 | 0.00 | 65 | 1014.5 |
| 20260508010350 | 51 | 240 | 0.9 | 1.7 | 0.00 | 0.00 | 0.00 | 63 | 1014.4 |
| 20260508005850 | 52 | 0 | 0.0 | 0.0 | 0.00 | 0.00 | 0.00 | 60 | 1014.2 |
| 20260508005350 | 52 | 246 | 0.9 | 1.7 | 0.00 | 0.00 | 0.00 | 60 | 1014.1 |
| 20260508004850 | 53 | 224 | 0.9 | 1.7 | 0.00 | 0.00 | 0.00 | 58 | 1014.0 |
| 20260508004350 | 53 | 231 | 0.9 | 1.7 | 0.00 | 0.00 | 0.00 | 55 | 1014.0 |
| 20260508003850 | 54 | 0 | 0.0 | 0.0 | 0.00 | 0.00 | 0.00 | 54 | 1013.9 |
| 20260508003349 | 55 | 0 | 0.0 | 0.0 | 0.00 | 0.00 | 0.00 | 54 | 1013.9 |
| 20260508002853 | 55 | 220 | 0.9 | 1.7 | 0.00 | 0.00 | 0.00 | 53 | 1013.7 |
| 20260508002350 | 56 | 221 | 0.0 | 1.7 | 0.00 | 0.00 | 0.00 | 52 | 1013.7 |
| 20260508001850 | 56 | 318 | 0.9 | 1.7 | 0.00 | 0.00 | 0.00 | 50 | 1013.6 |
| 20260508001351 | 57 | 219 | 0.0 | 0.0 | 0.00 | 0.00 | 0.00 | 51 | 1013.6 |
| 20260508000850 | 57 | 274 | 0.0 | 0.9 | 0.00 | 0.00 | 0.00 | 48 | 1013.5 |
| 20260508000350 | 57 | 316 | 0.0 | 0.9 | 0.00 | 0.00 | 0.00 | 49 | 1013.5 |
| 20260507235849 | 58 | 333 | 0.0 | 0.9 | 0.00 | 0.00 | 0.00 | 49 | 1013.4 |
| 20260507235350 | 58 | 350 | 1.7 | 1.7 | 0.00 | 0.00 | 0.00 | 47 | 1013.3 |
| 20260507234854 | 59 | 16 | 1.7 | 2.6 | 0.00 | 0.00 | 0.00 | 45 | 1013.2 |
| 20260507234349 | 59 | 345 | 1.7 | 1.7 | 0.00 | 0.00 | 0.00 | 44 | 1013.2 |
| 20260507233852 | 60 | 1 | 1.7 | 2.6 | 0.00 | 0.00 | 0.00 | 42 | 1013.1 |
| 20260507233351 | 60 | 13 | 0.9 | 1.7 | 0.00 | 0.00 | 0.00 | 44 | 1013.1 |
| 20260507232850 | 59 | 342 | 1.7 | 3.5 | 0.00 | 0.00 | 0.00 | 44 | 1013.0 |
| 20260507232350 | 59 | 1 | 1.7 | 1.7 | 0.00 | 0.00 | 0.00 | 44 | 1013.1 |
| 20260507231854 | 59 | 38 | 1.7 | 2.6 | 0.00 | 0.00 | 0.00 | 44 | 1013.1 |
| 20260507231350 | 59 | 27 | 1.7 | 3.5 | 0.00 | 0.00 | 0.00 | 44 | 1013.2 |
| 20260507230849 | 59 | 15 | 0.9 | 2.6 | 0.00 | 0.00 | 0.00 | 44 | 1013.2 |
| 20260507230350 | 60 | 19 | 3.5 | 5.2 | 0.00 | 0.00 | 0.00 | 43 | 1013.2 |
| 20260507225852 | 60 | 8 | 1.7 | 3.5 | 0.00 | 0.00 | 0.00 | 44 | 1013.2 |
| 20260507225350 | 60 | 344 | 1.7 | 3.5 | 0.00 | 0.00 | 0.00 | 44 | 1013.2 |
| 20260507224849 | 60 | 313 | 3.5 | 6.1 | 0.00 | 0.00 | 0.00 | 45 | 1013.2 |
| 20260507224350 | 60 | 344 | 2.6 | 3.5 | 0.00 | 0.00 | 0.00 | 44 | 1013.1 |
| 20260507223849 | 60 | 286 | 1.7 | 3.5 | 0.00 | 0.00 | 0.00 | 44 | 1013.1 |
| 20260507223349 | 60 | 313 | 3.5 | 5.2 | 0.00 | 0.00 | 0.00 | 43 | 1013.1 |
| 20260507222849 | 60 | 19 | 2.6 | 4.3 | 0.00 | 0.00 | 0.00 | 45 | 1013.1 |
| 20260507222350 | 61 | 347 | 3.5 | 5.2 | 0.00 | 0.00 | 0.00 | 43 | 1013.1 |
| 20260507221850 | 60 | 259 | 2.6 | 4.3 | 0.00 | 0.00 | 0.00 | 43 | 1013.1 |
| 20260507221349 | 60 | 307 | 3.5 | 5.2 | 0.00 | 0.00 | 0.00 | 43 | 1013.2 |
| 20260507220850 | 60 | 350 | 2.6 | 6.1 | 0.00 | 0.00 | 0.00 | 44 | 1013.3 |
| 20260507220350 | 60 | 347 | 3.5 | 5.2 | 0.00 | 0.00 | 0.00 | 44 | 1013.2 |
| 20260507215851 | 60 | 40 | 2.6 | 3.5 | 0.00 | 0.00 | 0.00 | 44 | 1013.2 |
| 20260507215351 | 59 | 256 | 0.9 | 1.7 | 0.00 | 0.00 | 0.00 | 44 | 1013.3 |
| 20260507214850 | 59 | 339 | 3.5 | 7.0 | 0.00 | 0.00 | 0.00 | 46 | 1013.2 |
| 20260507214350 | 60 | 3 | 5.2 | 10.4 | 0.00 | 0.00 | 0.00 | 44 | 1013.2 |
| 20260507213849 | 59 | 353 | 2.6 | 4.3 | 0.00 | 0.00 | 0.00 | 46 | 1013.2 |
| 20260507213352 | 59 | 314 | 2.6 | 5.2 | 0.00 | 0.00 | 0.00 | 45 | 1013.1 |
| 20260507212851 | 59 | 347 | 2.6 | 5.2 | 0.00 | 0.00 | 0.00 | 47 | 1013.2 |
| 20260507212352 | 59 | 358 | 2.6 | 3.5 | 0.00 | 0.00 | 0.00 | 45 | 1013.1 |
| 20260507211849 | 59 | 328 | 2.6 | 4.3 | 0.00 | 0.00 | 0.00 | 46 | 1013.2 |
| 20260507211350 | 59 | 346 | 1.7 | 3.5 | 0.00 | 0.00 | 0.00 | 48 | 1013.2 |
| 20260507210851 | 59 | 16 | 2.6 | 3.5 | 0.00 | 0.00 | 0.00 | 47 | 1013.1 |
| 20260507210353 | 59 | 298 | 1.7 | 2.6 | 0.00 | 0.00 | 0.00 | 49 | 1013.2 |
| 20260507205850 | 59 | 335 | 6.1 | 7.8 | 0.00 | 0.00 | 0.00 | 45 | 1013.0 |
| 20260507205350 | 58 | 29 | 2.6 | 3.5 | 0.00 | 0.00 | 0.00 | 47 | 1013.0 |
| 20260507204852 | 59 | 15 | 3.5 | 5.2 | 0.00 | 0.00 | 0.00 | 48 | 1013.2 |
| 20260507204351 | 59 | 20 | 4.3 | 7.0 | 0.00 | 0.00 | 0.00 | 48 | 1013.1 |
| 20260507203853 | 59 | 10 | 5.2 | 7.0 | 0.00 | 0.00 | 0.00 | 47 | 1013.0 |
| 20260507203356 | 59 | 308 | 3.5 | 5.2 | 0.00 | 0.00 | 0.00 | 46 | 1012.9 |
| 20260507202900 | 59 | 346 | 4.3 | 7.0 | 0.00 | 0.00 | 0.00 | 46 | 1013.0 |
| 20260507202350 | 59 | 6 | 5.2 | 8.7 | 0.00 | 0.00 | 0.00 | 46 | 1013.0 |
| 20260507201851 | 59 | 3 | 2.6 | 5.2 | 0.00 | 0.00 | 0.00 | 46 | 1013.0 |
| 20260507201352 | 59 | 309 | 1.7 | 2.6 | 0.00 | 0.00 | 0.00 | 45 | 1013.0 |
| 20260507200852 | 59 | 0 | 2.6 | 4.3 | 0.00 | 0.00 | 0.00 | 47 | 1013.1 |